METAR Data
IDs: Format: Raw Decoded Include TAF

Data at: 1337 UTC 14 Dec 2019

PATA 141252Z AUTO VRB04KT 10SM CLR M14/M18 A2971 RMK AO2 SLP069 T11391178 TSNO
PATA 141152Z AUTO 06011KT 10SM CLR M11/M17 A2971 RMK AO2 SLP069 T11111167 11100 21133 58003 TSNO
PATA 141052Z AUTO 02007KT 10SM CLR M12/M17 A2972 RMK AO2 SLP072 T11221172 TSNO
PATA 140952Z AUTO 03006KT 10SM CLR M13/M17 A2972 RMK AO2 SLP073 T11281172 TSNO
PATA 140852Z AUTO 01006KT 10SM CLR M12/M17 A2972 RMK AO2 SLP071 T11221172 411001133 51004 TSNO
PATA 140752Z AUTO 03007KT 10SM CLR M12/M17 A2972 RMK AO2 SLP070 T11171172 TSNO
PATA 140652Z AUTO 36005KT 10SM CLR M12/M17 A2971 RMK AO2 SLP069 T11171167 TSNO
PATA 140552Z 03007KT 10SM CLR M12/M17 A2971 RMK AO2 SLP068 T11171172 11111 21122 52008
PATA 140452Z 06008KT 10SM CLR M12/M17 A2970 RMK AO2 SLP066 T11171172
PATA 140352Z 07011KT 10SM CLR M12/M17 A2969 RMK AO2 SLP061 T11171172
PATA 140252Z 06006KT 10SM CLR M12/M17 A2969 RMK AO2 SLP059 T11171172 51016
PATA 140152Z 07008KT 10SM CLR M12/M17 A2967 RMK AO2 SLP056 T11171172
PATA 140052Z 07003KT 10SM FEW070 M12/M18 A2967 RMK AO2 SLP053 T11221178
PATA 132352Z 06008KT 10SM FEW065 M12/M18 A2964 RMK AO2 SLP044 T11221178 11117 21128 51021
PATA 132252Z VRB03KT 10SM CLR M12/M17 A2962 RMK AO2 SLP038 T11171172
PATA 132152Z 08007KT 10SM SCT110 M12/M18 A2960 RMK AO2 SLP031 T11221178
PATA 132052Z 09006KT 10SM CLR M12/M17 A2957 RMK AO2 SLP022 T11171172 53025
PATA 131952Z 09005KT 10SM SCT090 M12/M17 A2955 RMK AO2 SLP014 T11221172
PATA 131852Z 05007KT 10SM FEW090 M12/M17 A2952 RMK AO2 SLP002 T11221172
PATA 131752Z 07011G18KT 10SM CLR M12/M18 A2950 RMK AO2 SLP996 4/020 933051 T11221178 11117 21133 53019
PATA 131552Z VRB06KT 10SM FEW120 M13/M18 A2945 RMK AO2 SLP981 T11331183
PATA 131452Z AUTO 07011KT 10SM CLR M13/M19 A2944 RMK AO2 SLP977 T11331189 51007 TSNO
PATA 131352Z AUTO 09012KT 10SM OVC041 M13/M19 A2943 RMK AO2 SLP973 T11281189 TSNO
PATA 131252Z AUTO 11009KT 10SM OVC040 M13/M18 A2943 RMK AO2 SLP974 T11281183 TSNO
PATA 131152Z AUTO 13010KT 10SM BKN048 OVC060 M12/M18 A2942 RMK AO2 SLP969 T11221183 11100 21133 55000 TSNO
PATA 131052Z AUTO 21004KT 10SM BKN050 M13/M19 A2941 RMK AO2 SLP966 T11281189 TSNO
PATA 130952Z AUTO 02009G17KT 10SM CLR M10/M18 A2942 RMK AO2 SLP969 T11001178 TSNO
PATA 130852Z AUTO 10011KT 10SM BKN047 M11/M18 A2942 RMK AO2 SLP969 T11061178 410781117 57007 TSNO
PATA 130752Z AUTO 10008KT 10SM CLR M11/M18 A2943 RMK AO2 SLP971 T11061183 TSNO
PATA 130652Z AUTO 08006KT 10SM CLR M11/M18 A2944 RMK AO2 SLP975 T11061183 TSNO
PATA 130552Z VRB03KT 10SM CLR M10/M18 A2944 RMK AO2 SLP977 T11001178 11083 21117 58005
PATA 130452Z 16004KT 10SM CLR M11/M18 A2946 RMK AO2 SLP983 T11061178
PATA 130352Z 10SM CLR M09/M17 A2946 RMK AO2 SLP983 T10941172
PATA 130252Z 14012KT 10SM CLR M11/M17 A2946 RMK AO2 SLP982 T11061167 58012
PATA 130152Z 15008G16KT 10SM CLR M09/M17 A2947 RMK AO2 SLP985 T10941167